sensor_id;sensor_type;location;lat;lon;timestamp;P1;durP1;ratioP1;P2;durP2;ratioP2
78312;SDS011;67568;47.438;21.408;2023-12-28T00:01:45;6.20;;;3.38;;
78312;SDS011;67568;47.438;21.408;2023-12-28T00:04:12;4.38;;;2.33;;
78312;SDS011;67568;47.438;21.408;2023-12-28T00:06:39;5.85;;;3.42;;
78312;SDS011;67568;47.438;21.408;2023-12-28T00:09:07;4.78;;;2.38;;
78312;SDS011;67568;47.438;21.408;2023-12-28T00:11:38;5.75;;;2.30;;
78312;SDS011;67568;47.438;21.408;2023-12-28T00:14:05;6.38;;;3.50;;
78312;SDS011;67568;47.438;21.408;2023-12-28T00:16:32;7.03;;;2.45;;
78312;SDS011;67568;47.438;21.408;2023-12-28T00:18:59;8.25;;;2.53;;
78312;SDS011;67568;47.438;21.408;2023-12-28T00:21:26;11.60;;;4.15;;
78312;SDS011;67568;47.438;21.408;2023-12-28T00:23:53;7.00;;;3.55;;
78312;SDS011;67568;47.438;21.408;2023-12-28T00:26:20;4.88;;;2.25;;
78312;SDS011;67568;47.438;21.408;2023-12-28T00:28:47;8.85;;;2.67;;
78312;SDS011;67568;47.438;21.408;2023-12-28T00:31:14;4.93;;;2.58;;
78312;SDS011;67568;47.438;21.408;2023-12-28T00:33:41;3.72;;;2.15;;
78312;SDS011;67568;47.438;21.408;2023-12-28T00:36:08;7.88;;;3.35;;
78312;SDS011;67568;47.438;21.408;2023-12-28T00:38:35;5.05;;;2.63;;
78312;SDS011;67568;47.438;21.408;2023-12-28T00:41:01;7.30;;;2.40;;
78312;SDS011;67568;47.438;21.408;2023-12-28T00:43:28;5.30;;;3.13;;
78312;SDS011;67568;47.438;21.408;2023-12-28T00:45:55;5.60;;;2.53;;
78312;SDS011;67568;47.438;21.408;2023-12-28T00:48:22;8.88;;;3.08;;
78312;SDS011;67568;47.438;21.408;2023-12-28T00:50:49;4.18;;;2.65;;
78312;SDS011;67568;47.438;21.408;2023-12-28T00:53:15;4.28;;;2.15;;
78312;SDS011;67568;47.438;21.408;2023-12-28T00:55:45;4.88;;;2.38;;
78312;SDS011;67568;47.438;21.408;2023-12-28T00:58:11;3.97;;;1.95;;
78312;SDS011;67568;47.438;21.408;2023-12-28T01:00:38;4.32;;;2.38;;
78312;SDS011;67568;47.438;21.408;2023-12-28T01:03:05;3.00;;;1.83;;
78312;SDS011;67568;47.438;21.408;2023-12-28T01:05:32;5.05;;;1.90;;
78312;SDS011;67568;47.438;21.408;2023-12-28T01:07:59;5.80;;;2.53;;
78312;SDS011;67568;47.438;21.408;2023-12-28T01:10:26;4.80;;;2.05;;
78312;SDS011;67568;47.438;21.408;2023-12-28T01:12:53;5.40;;;2.40;;
78312;SDS011;67568;47.438;21.408;2023-12-28T01:15:20;3.10;;;1.63;;
78312;SDS011;67568;47.438;21.408;2023-12-28T01:17:47;4.07;;;1.80;;
78312;SDS011;67568;47.438;21.408;2023-12-28T01:20:14;3.38;;;1.95;;
78312;SDS011;67568;47.438;21.408;2023-12-28T01:22:41;4.47;;;3.17;;
78312;SDS011;67568;47.438;21.408;2023-12-28T01:25:07;3.33;;;1.90;;
78312;SDS011;67568;47.438;21.408;2023-12-28T01:27:34;3.90;;;2.03;;
78312;SDS011;67568;47.438;21.408;2023-12-28T01:30:01;4.57;;;2.22;;
78312;SDS011;67568;47.438;21.408;2023-12-28T01:32:27;4.03;;;1.70;;
78312;SDS011;67568;47.438;21.408;2023-12-28T01:34:54;4.20;;;2.13;;
78312;SDS011;67568;47.438;21.408;2023-12-28T01:37:21;5.60;;;2.80;;
78312;SDS011;67568;47.438;21.408;2023-12-28T01:39:48;4.65;;;2.28;;
78312;SDS011;67568;47.438;21.408;2023-12-28T01:42:15;5.25;;;1.50;;
78312;SDS011;67568;47.438;21.408;2023-12-28T01:44:41;4.50;;;2.97;;
78312;SDS011;67568;47.438;21.408;2023-12-28T01:47:08;3.80;;;1.98;;
78312;SDS011;67568;47.438;21.408;2023-12-28T01:49:35;7.22;;;2.40;;
78312;SDS011;67568;47.438;21.408;2023-12-28T01:52:03;3.03;;;2.05;;
78312;SDS011;67568;47.438;21.408;2023-12-28T01:54:31;3.38;;;1.90;;
78312;SDS011;67568;47.438;21.408;2023-12-28T01:56:58;7.18;;;2.20;;
78312;SDS011;67568;47.438;21.408;2023-12-28T01:59:26;4.75;;;1.60;;
78312;SDS011;67568;47.438;21.408;2023-12-28T02:01:53;4.90;;;1.67;;
78312;SDS011;67568;47.438;21.408;2023-12-28T02:04:21;7.85;;;2.53;;
78312;SDS011;67568;47.438;21.408;2023-12-28T02:06:48;3.78;;;1.52;;
78312;SDS011;67568;47.438;21.408;2023-12-28T02:09:15;3.65;;;1.75;;
78312;SDS011;67568;47.438;21.408;2023-12-28T02:11:42;4.38;;;2.17;;
78312;SDS011;67568;47.438;21.408;2023-12-28T02:14:09;4.55;;;2.20;;
78312;SDS011;67568;47.438;21.408;2023-12-28T02:16:36;8.77;;;1.50;;
78312;SDS011;67568;47.438;21.408;2023-12-28T02:19:54;2.72;;;1.58;;
78312;SDS011;67568;47.438;21.408;2023-12-28T02:22:03;9.75;;;2.80;;
78312;SDS011;67568;47.438;21.408;2023-12-28T02:24:30;2.63;;;1.10;;
78312;SDS011;67568;47.438;21.408;2023-12-28T02:26:57;4.07;;;1.65;;
78312;SDS011;67568;47.438;21.408;2023-12-28T02:29:24;3.60;;;1.48;;
78312;SDS011;67568;47.438;21.408;2023-12-28T02:31:53;5.10;;;1.90;;
78312;SDS011;67568;47.438;21.408;2023-12-28T02:34:32;2.30;;;1.27;;
78312;SDS011;67568;47.438;21.408;2023-12-28T02:37:04;2.90;;;1.38;;
78312;SDS011;67568;47.438;21.408;2023-12-28T02:39:32;2.45;;;1.25;;
78312;SDS011;67568;47.438;21.408;2023-12-28T02:41:59;3.58;;;1.50;;
78312;SDS011;67568;47.438;21.408;2023-12-28T02:44:26;2.22;;;1.42;;
78312;SDS011;67568;47.438;21.408;2023-12-28T02:46:53;2.35;;;1.38;;
78312;SDS011;67568;47.438;21.408;2023-12-28T02:49:19;3.40;;;1.67;;
78312;SDS011;67568;47.438;21.408;2023-12-28T02:51:46;2.95;;;1.60;;
78312;SDS011;67568;47.438;21.408;2023-12-28T02:54:13;6.10;;;1.80;;
78312;SDS011;67568;47.438;21.408;2023-12-28T02:56:40;2.22;;;1.33;;
78312;SDS011;67568;47.438;21.408;2023-12-28T02:59:07;3.13;;;1.00;;
78312;SDS011;67568;47.438;21.408;2023-12-28T03:01:34;5.55;;;2.15;;
78312;SDS011;67568;47.438;21.408;2023-12-28T03:04:00;4.15;;;2.13;;
78312;SDS011;67568;47.438;21.408;2023-12-28T03:06:27;1.88;;;1.02;;
78312;SDS011;67568;47.438;21.408;2023-12-28T03:08:54;3.83;;;2.28;;
78312;SDS011;67568;47.438;21.408;2023-12-28T03:11:21;3.35;;;1.35;;
78312;SDS011;67568;47.438;21.408;2023-12-28T03:13:47;4.43;;;2.17;;
78312;SDS011;67568;47.438;21.408;2023-12-28T03:16:14;4.70;;;2.03;;
78312;SDS011;67568;47.438;21.408;2023-12-28T03:18:41;2.30;;;1.13;;
78312;SDS011;67568;47.438;21.408;2023-12-28T03:21:08;3.45;;;1.83;;
78312;SDS011;67568;47.438;21.408;2023-12-28T03:23:35;2.08;;;1.17;;
78312;SDS011;67568;47.438;21.408;2023-12-28T03:26:01;3.75;;;1.70;;
78312;SDS011;67568;47.438;21.408;2023-12-28T03:28:28;6.00;;;1.35;;
78312;SDS011;67568;47.438;21.408;2023-12-28T03:30:55;3.70;;;1.63;;
78312;SDS011;67568;47.438;21.408;2023-12-28T03:33:22;2.35;;;1.25;;
78312;SDS011;67568;47.438;21.408;2023-12-28T03:35:48;5.10;;;1.88;;
78312;SDS011;67568;47.438;21.408;2023-12-28T03:38:15;3.45;;;1.95;;
78312;SDS011;67568;47.438;21.408;2023-12-28T03:40:42;3.10;;;1.60;;
78312;SDS011;67568;47.438;21.408;2023-12-28T03:43:09;4.03;;;1.67;;
78312;SDS011;67568;47.438;21.408;2023-12-28T03:45:35;4.53;;;2.15;;
78312;SDS011;67568;47.438;21.408;2023-12-28T03:48:02;5.05;;;2.08;;
78312;SDS011;67568;47.438;21.408;2023-12-28T03:50:30;3.40;;;1.88;;
78312;SDS011;67568;47.438;21.408;2023-12-28T03:52:57;2.42;;;1.17;;
78312;SDS011;67568;47.438;21.408;2023-12-28T03:55:23;3.35;;;1.58;;
78312;SDS011;67568;47.438;21.408;2023-12-28T03:57:50;5.00;;;1.83;;
78312;SDS011;67568;47.438;21.408;2023-12-28T04:00:17;3.20;;;1.88;;
78312;SDS011;67568;47.438;21.408;2023-12-28T04:02:44;5.43;;;2.15;;
78312;SDS011;67568;47.438;21.408;2023-12-28T04:05:11;4.30;;;2.05;;
78312;SDS011;67568;47.438;21.408;2023-12-28T04:07:38;5.13;;;1.98;;
78312;SDS011;67568;47.438;21.408;2023-12-28T04:10:05;4.05;;;1.92;;
78312;SDS011;67568;47.438;21.408;2023-12-28T04:12:32;2.92;;;1.52;;
78312;SDS011;67568;47.438;21.408;2023-12-28T04:14:58;2.40;;;1.30;;
78312;SDS011;67568;47.438;21.408;2023-12-28T04:17:28;4.72;;;2.22;;
78312;SDS011;67568;47.438;21.408;2023-12-28T04:19:55;4.68;;;2.22;;
78312;SDS011;67568;47.438;21.408;2023-12-28T04:22:22;3.63;;;2.03;;
78312;SDS011;67568;47.438;21.408;2023-12-28T04:24:48;4.13;;;1.88;;
78312;SDS011;67568;47.438;21.408;2023-12-28T04:27:15;4.90;;;2.20;;
78312;SDS011;67568;47.438;21.408;2023-12-28T04:29:42;6.28;;;2.33;;
78312;SDS011;67568;47.438;21.408;2023-12-28T04:32:09;5.05;;;2.08;;
78312;SDS011;67568;47.438;21.408;2023-12-28T04:34:35;7.43;;;2.75;;
78312;SDS011;67568;47.438;21.408;2023-12-28T04:37:02;4.63;;;2.28;;
78312;SDS011;67568;47.438;21.408;2023-12-28T04:39:29;10.23;;;4.22;;
78312;SDS011;67568;47.438;21.408;2023-12-28T04:41:56;11.82;;;7.32;;
78312;SDS011;67568;47.438;21.408;2023-12-28T04:44:22;8.98;;;4.25;;
78312;SDS011;67568;47.438;21.408;2023-12-28T04:46:49;6.78;;;3.45;;
78312;SDS011;67568;47.438;21.408;2023-12-28T04:49:16;7.45;;;4.43;;
78312;SDS011;67568;47.438;21.408;2023-12-28T04:51:43;5.38;;;2.50;;
78312;SDS011;67568;47.438;21.408;2023-12-28T04:54:10;10.77;;;2.17;;
78312;SDS011;67568;47.438;21.408;2023-12-28T04:56:38;3.40;;;1.83;;
78312;SDS011;67568;47.438;21.408;2023-12-28T04:59:05;9.15;;;2.67;;
78312;SDS011;67568;47.438;21.408;2023-12-28T05:01:31;3.60;;;1.75;;
78312;SDS011;67568;47.438;21.408;2023-12-28T05:03:58;5.22;;;2.50;;
78312;SDS011;67568;47.438;21.408;2023-12-28T05:06:27;3.30;;;2.17;;
78312;SDS011;67568;47.438;21.408;2023-12-28T05:08:54;3.15;;;1.80;;
78312;SDS011;67568;47.438;21.408;2023-12-28T05:11:21;6.32;;;3.50;;
78312;SDS011;67568;47.438;21.408;2023-12-28T05:13:52;2.55;;;1.73;;
78312;SDS011;67568;47.438;21.408;2023-12-28T05:16:20;5.32;;;2.17;;
78312;SDS011;67568;47.438;21.408;2023-12-28T05:18:47;4.55;;;2.05;;
78312;SDS011;67568;47.438;21.408;2023-12-28T05:21:16;1.67;;;0.95;;
78312;SDS011;67568;47.438;21.408;2023-12-28T05:23:45;3.30;;;1.67;;
78312;SDS011;67568;47.438;21.408;2023-12-28T05:26:12;3.33;;;1.75;;
78312;SDS011;67568;47.438;21.408;2023-12-28T05:28:39;3.38;;;1.58;;
78312;SDS011;67568;47.438;21.408;2023-12-28T05:31:05;3.55;;;1.92;;
78312;SDS011;67568;47.438;21.408;2023-12-28T05:33:32;4.05;;;1.10;;
78312;SDS011;67568;47.438;21.408;2023-12-28T05:35:59;3.85;;;1.63;;
78312;SDS011;67568;47.438;21.408;2023-12-28T05:38:26;2.10;;;1.20;;
78312;SDS011;67568;47.438;21.408;2023-12-28T05:40:53;2.97;;;1.55;;
78312;SDS011;67568;47.438;21.408;2023-12-28T05:43:19;3.50;;;2.25;;
78312;SDS011;67568;47.438;21.408;2023-12-28T05:45:46;3.22;;;1.83;;
78312;SDS011;67568;47.438;21.408;2023-12-28T05:48:13;4.97;;;1.83;;
78312;SDS011;67568;47.438;21.408;2023-12-28T05:50:40;2.30;;;1.23;;
78312;SDS011;67568;47.438;21.408;2023-12-28T05:53:07;2.72;;;1.73;;
78312;SDS011;67568;47.438;21.408;2023-12-28T05:55:33;2.60;;;1.60;;
78312;SDS011;67568;47.438;21.408;2023-12-28T05:58:00;2.85;;;1.50;;
78312;SDS011;67568;47.438;21.408;2023-12-28T06:00:28;4.90;;;1.98;;
78312;SDS011;67568;47.438;21.408;2023-12-28T06:02:56;2.60;;;1.52;;
78312;SDS011;67568;47.438;21.408;2023-12-28T06:05:26;2.15;;;1.13;;
78312;SDS011;67568;47.438;21.408;2023-12-28T06:07:52;3.05;;;1.58;;
78312;SDS011;67568;47.438;21.408;2023-12-28T06:10:21;3.05;;;1.95;;
78312;SDS011;67568;47.438;21.408;2023-12-28T06:12:48;4.68;;;2.42;;
78312;SDS011;67568;47.438;21.408;2023-12-28T06:15:15;3.78;;;1.65;;
78312;SDS011;67568;47.438;21.408;2023-12-28T06:17:42;4.50;;;2.45;;
78312;SDS011;67568;47.438;21.408;2023-12-28T06:20:09;4.03;;;2.60;;
78312;SDS011;67568;47.438;21.408;2023-12-28T06:22:39;3.40;;;2.13;;
78312;SDS011;67568;47.438;21.408;2023-12-28T06:25:06;5.25;;;2.38;;
78312;SDS011;67568;47.438;21.408;2023-12-28T06:27:32;3.90;;;2.10;;
78312;SDS011;67568;47.438;21.408;2023-12-28T06:29:59;3.58;;;2.25;;
78312;SDS011;67568;47.438;21.408;2023-12-28T06:32:26;7.15;;;2.13;;
78312;SDS011;67568;47.438;21.408;2023-12-28T06:34:54;3.83;;;2.43;;
78312;SDS011;67568;47.438;21.408;2023-12-28T06:37:21;4.20;;;2.60;;
78312;SDS011;67568;47.438;21.408;2023-12-28T06:39:48;5.80;;;2.42;;
78312;SDS011;67568;47.438;21.408;2023-12-28T06:42:15;4.47;;;2.13;;
78312;SDS011;67568;47.438;21.408;2023-12-28T06:44:42;7.15;;;4.28;;
78312;SDS011;67568;47.438;21.408;2023-12-28T06:47:08;6.90;;;4.28;;
78312;SDS011;67568;47.438;21.408;2023-12-28T06:49:35;6.57;;;3.75;;
78312;SDS011;67568;47.438;21.408;2023-12-28T06:52:02;4.47;;;2.75;;
78312;SDS011;67568;47.438;21.408;2023-12-28T06:54:29;6.47;;;3.42;;
78312;SDS011;67568;47.438;21.408;2023-12-28T06:56:56;5.28;;;3.05;;
78312;SDS011;67568;47.438;21.408;2023-12-28T06:59:22;4.43;;;2.20;;
78312;SDS011;67568;47.438;21.408;2023-12-28T07:01:49;6.15;;;3.35;;
78312;SDS011;67568;47.438;21.408;2023-12-28T07:04:16;6.10;;;2.60;;
78312;SDS011;67568;47.438;21.408;2023-12-28T07:06:43;6.38;;;3.05;;
78312;SDS011;67568;47.438;21.408;2023-12-28T07:09:10;5.28;;;3.03;;
78312;SDS011;67568;47.438;21.408;2023-12-28T07:11:36;3.47;;;2.30;;
78312;SDS011;67568;47.438;21.408;2023-12-28T07:14:03;3.42;;;2.17;;
78312;SDS011;67568;47.438;21.408;2023-12-28T07:16:30;4.97;;;2.55;;
78312;SDS011;67568;47.438;21.408;2023-12-28T07:18:57;4.40;;;2.80;;
78312;SDS011;67568;47.438;21.408;2023-12-28T07:21:24;6.65;;;3.80;;
78312;SDS011;67568;47.438;21.408;2023-12-28T07:23:50;6.38;;;3.95;;
78312;SDS011;67568;47.438;21.408;2023-12-28T07:26:17;6.60;;;2.75;;
78312;SDS011;67568;47.438;21.408;2023-12-28T07:28:44;6.72;;;4.25;;
78312;SDS011;67568;47.438;21.408;2023-12-28T07:31:11;7.72;;;4.28;;
78312;SDS011;67568;47.438;21.408;2023-12-28T07:33:38;6.88;;;4.03;;
78312;SDS011;67568;47.438;21.408;2023-12-28T07:36:04;6.88;;;3.47;;
78312;SDS011;67568;47.438;21.408;2023-12-28T07:38:31;31.20;;;4.63;;
78312;SDS011;67568;47.438;21.408;2023-12-28T07:40:58;6.18;;;3.40;;
78312;SDS011;67568;47.438;21.408;2023-12-28T07:43:25;6.15;;;3.45;;
78312;SDS011;67568;47.438;21.408;2023-12-28T07:45:51;6.03;;;2.40;;
78312;SDS011;67568;47.438;21.408;2023-12-28T07:48:21;4.68;;;2.67;;
78312;SDS011;67568;47.438;21.408;2023-12-28T07:50:48;5.20;;;1.40;;
78312;SDS011;67568;47.438;21.408;2023-12-28T07:53:15;3.00;;;1.88;;
78312;SDS011;67568;47.438;21.408;2023-12-28T07:55:41;5.32;;;2.45;;
78312;SDS011;67568;47.438;21.408;2023-12-28T07:58:08;6.30;;;2.53;;
78312;SDS011;67568;47.438;21.408;2023-12-28T08:00:35;4.25;;;2.17;;
78312;SDS011;67568;47.438;21.408;2023-12-28T08:03:02;4.63;;;2.43;;
78312;SDS011;67568;47.438;21.408;2023-12-28T08:05:29;7.60;;;2.55;;
78312;SDS011;67568;47.438;21.408;2023-12-28T08:07:57;6.50;;;2.63;;
78312;SDS011;67568;47.438;21.408;2023-12-28T08:10:24;4.80;;;1.73;;
78312;SDS011;67568;47.438;21.408;2023-12-28T08:12:51;5.93;;;2.40;;
78312;SDS011;67568;47.438;21.408;2023-12-28T08:15:18;5.45;;;2.35;;
78312;SDS011;67568;47.438;21.408;2023-12-28T08:17:45;6.95;;;3.33;;
78312;SDS011;67568;47.438;21.408;2023-12-28T08:20:12;6.03;;;2.30;;
78312;SDS011;67568;47.438;21.408;2023-12-28T08:22:38;5.05;;;2.25;;
78312;SDS011;67568;47.438;21.408;2023-12-28T08:25:05;6.00;;;2.45;;
78312;SDS011;67568;47.438;21.408;2023-12-28T08:27:32;6.53;;;2.73;;
78312;SDS011;67568;47.438;21.408;2023-12-28T08:29:59;8.15;;;2.67;;
78312;SDS011;67568;47.438;21.408;2023-12-28T08:32:26;5.32;;;2.67;;
78312;SDS011;67568;47.438;21.408;2023-12-28T08:34:52;3.42;;;1.73;;
78312;SDS011;67568;47.438;21.408;2023-12-28T08:37:19;6.35;;;2.78;;
78312;SDS011;67568;47.438;21.408;2023-12-28T08:39:46;6.00;;;2.80;;
78312;SDS011;67568;47.438;21.408;2023-12-28T08:42:13;4.13;;;1.83;;
78312;SDS011;67568;47.438;21.408;2023-12-28T08:44:40;4.70;;;2.33;;
78312;SDS011;67568;47.438;21.408;2023-12-28T08:47:06;6.93;;;2.17;;
78312;SDS011;67568;47.438;21.408;2023-12-28T08:49:33;4.95;;;1.85;;
78312;SDS011;67568;47.438;21.408;2023-12-28T08:52:00;5.67;;;2.43;;
78312;SDS011;67568;47.438;21.408;2023-12-28T08:54:27;6.20;;;2.13;;
78312;SDS011;67568;47.438;21.408;2023-12-28T08:56:54;5.90;;;2.35;;
78312;SDS011;67568;47.438;21.408;2023-12-28T08:59:25;6.28;;;2.60;;
78312;SDS011;67568;47.438;21.408;2023-12-28T09:01:54;6.80;;;1.88;;
78312;SDS011;67568;47.438;21.408;2023-12-28T09:04:21;4.40;;;2.37;;
78312;SDS011;67568;47.438;21.408;2023-12-28T09:06:48;4.32;;;1.70;;
78312;SDS011;67568;47.438;21.408;2023-12-28T09:09:15;4.95;;;2.42;;
78312;SDS011;67568;47.438;21.408;2023-12-28T09:11:41;5.53;;;2.28;;
78312;SDS011;67568;47.438;21.408;2023-12-28T09:14:08;8.38;;;2.50;;
78312;SDS011;67568;47.438;21.408;2023-12-28T09:16:35;4.63;;;1.90;;
78312;SDS011;67568;47.438;21.408;2023-12-28T09:19:02;6.22;;;2.13;;
78312;SDS011;67568;47.438;21.408;2023-12-28T09:21:29;5.03;;;2.03;;
78312;SDS011;67568;47.438;21.408;2023-12-28T09:23:56;5.15;;;2.00;;
78312;SDS011;67568;47.438;21.408;2023-12-28T09:26:22;5.47;;;2.15;;
78312;SDS011;67568;47.438;21.408;2023-12-28T09:28:49;4.30;;;1.80;;
78312;SDS011;67568;47.438;21.408;2023-12-28T09:31:19;5.72;;;2.05;;
78312;SDS011;67568;47.438;21.408;2023-12-28T09:33:46;4.32;;;1.90;;
78312;SDS011;67568;47.438;21.408;2023-12-28T09:36:12;5.18;;;1.73;;
78312;SDS011;67568;47.438;21.408;2023-12-28T09:38:39;5.90;;;2.47;;
78312;SDS011;67568;47.438;21.408;2023-12-28T09:41:12;2.57;;;1.30;;
78312;SDS011;67568;47.438;21.408;2023-12-28T09:43:41;5.60;;;1.92;;
78312;SDS011;67568;47.438;21.408;2023-12-28T09:46:22;3.70;;;1.70;;
78312;SDS011;67568;47.438;21.408;2023-12-28T09:48:49;5.28;;;1.85;;
78312;SDS011;67568;47.438;21.408;2023-12-28T09:51:16;4.60;;;1.80;;
78312;SDS011;67568;47.438;21.408;2023-12-28T09:53:44;4.43;;;2.07;;
78312;SDS011;67568;47.438;21.408;2023-12-28T09:56:12;5.00;;;1.50;;
78312;SDS011;67568;47.438;21.408;2023-12-28T09:58:39;4.80;;;1.55;;
78312;SDS011;67568;47.438;21.408;2023-12-28T10:01:11;3.95;;;1.67;;
78312;SDS011;67568;47.438;21.408;2023-12-28T10:03:45;3.58;;;1.67;;
78312;SDS011;67568;47.438;21.408;2023-12-28T10:06:13;4.10;;;1.70;;
78312;SDS011;67568;47.438;21.408;2023-12-28T10:08:44;4.95;;;1.88;;
78312;SDS011;67568;47.438;21.408;2023-12-28T10:11:12;10.32;;;1.63;;
78312;SDS011;67568;47.438;21.408;2023-12-28T10:13:41;4.03;;;1.50;;
78312;SDS011;67568;47.438;21.408;2023-12-28T10:16:09;3.25;;;1.38;;
78312;SDS011;67568;47.438;21.408;2023-12-28T10:18:36;4.07;;;1.70;;
78312;SDS011;67568;47.438;21.408;2023-12-28T10:21:06;5.57;;;1.40;;
78312;SDS011;67568;47.438;21.408;2023-12-28T10:23:33;4.25;;;1.60;;
78312;SDS011;67568;47.438;21.408;2023-12-28T10:26:00;4.40;;;1.80;;
78312;SDS011;67568;47.438;21.408;2023-12-28T10:28:30;3.72;;;1.27;;
78312;SDS011;67568;47.438;21.408;2023-12-28T10:30:57;3.13;;;1.53;;
78312;SDS011;67568;47.438;21.408;2023-12-28T10:33:25;11.30;;;1.25;;
78312;SDS011;67568;47.438;21.408;2023-12-28T10:35:52;3.05;;;1.40;;
78312;SDS011;67568;47.438;21.408;2023-12-28T10:38:25;5.07;;;1.95;;
78312;SDS011;67568;47.438;21.408;2023-12-28T10:40:54;4.68;;;2.03;;
78312;SDS011;67568;47.438;21.408;2023-12-28T10:43:21;4.60;;;1.93;;
78312;SDS011;67568;47.438;21.408;2023-12-28T10:45:50;4.25;;;1.40;;
78312;SDS011;67568;47.438;21.408;2023-12-28T10:48:20;4.47;;;2.08;;
78312;SDS011;67568;47.438;21.408;2023-12-28T10:50:57;4.10;;;2.05;;
78312;SDS011;67568;47.438;21.408;2023-12-28T11:02:02;5.32;;;1.75;;
78312;SDS011;67568;47.438;21.408;2023-12-28T11:04:44;3.47;;;1.20;;
78312;SDS011;67568;47.438;21.408;2023-12-28T11:07:15;3.63;;;1.40;;
78312;SDS011;67568;47.438;21.408;2023-12-28T11:09:44;2.93;;;1.53;;
78312;SDS011;67568;47.438;21.408;2023-12-28T11:12:11;6.63;;;1.40;;
78312;SDS011;67568;47.438;21.408;2023-12-28T11:14:39;6.30;;;1.42;;
78312;SDS011;67568;47.438;21.408;2023-12-28T11:17:07;5.45;;;1.20;;
78312;SDS011;67568;47.438;21.408;2023-12-28T11:19:35;3.28;;;1.30;;
78312;SDS011;67568;47.438;21.408;2023-12-28T11:22:03;2.87;;;1.20;;
78312;SDS011;67568;47.438;21.408;2023-12-28T11:24:31;3.67;;;1.50;;
78312;SDS011;67568;47.438;21.408;2023-12-28T11:27:00;1.92;;;0.90;;
78312;SDS011;67568;47.438;21.408;2023-12-28T11:29:28;3.95;;;1.20;;
78312;SDS011;67568;47.438;21.408;2023-12-28T11:31:59;5.50;;;1.77;;
78312;SDS011;67568;47.438;21.408;2023-12-28T11:34:32;3.53;;;1.20;;
78312;SDS011;67568;47.438;21.408;2023-12-28T11:37:00;2.50;;;1.50;;
78312;SDS011;67568;47.438;21.408;2023-12-28T11:39:31;3.08;;;1.30;;
78312;SDS011;67568;47.438;21.408;2023-12-28T11:42:00;4.75;;;1.70;;
78312;SDS011;67568;47.438;21.408;2023-12-28T11:44:28;3.72;;;1.55;;
78312;SDS011;67568;47.438;21.408;2023-12-28T11:46:56;4.30;;;1.60;;
78312;SDS011;67568;47.438;21.408;2023-12-28T11:49:26;4.88;;;1.40;;
78312;SDS011;67568;47.438;21.408;2023-12-28T11:51:54;4.90;;;1.55;;
78312;SDS011;67568;47.438;21.408;2023-12-28T11:54:29;3.60;;;1.70;;
78312;SDS011;67568;47.438;21.408;2023-12-28T11:56:56;3.58;;;1.60;;
78312;SDS011;67568;47.438;21.408;2023-12-28T11:59:22;5.83;;;1.80;;
78312;SDS011;67568;47.438;21.408;2023-12-28T12:01:52;4.60;;;2.28;;
78312;SDS011;67568;47.438;21.408;2023-12-28T12:04:20;6.03;;;2.03;;
78312;SDS011;67568;47.438;21.408;2023-12-28T12:06:47;3.03;;;1.48;;
78312;SDS011;67568;47.438;21.408;2023-12-28T12:09:14;3.60;;;1.70;;
78312;SDS011;67568;47.438;21.408;2023-12-28T12:11:41;6.23;;;1.83;;
78312;SDS011;67568;47.438;21.408;2023-12-28T12:14:09;5.47;;;2.17;;
78312;SDS011;67568;47.438;21.408;2023-12-28T12:16:36;5.35;;;2.38;;
78312;SDS011;67568;47.438;21.408;2023-12-28T12:19:04;5.65;;;2.40;;
78312;SDS011;67568;47.438;21.408;2023-12-28T12:21:34;5.47;;;2.20;;
78312;SDS011;67568;47.438;21.408;2023-12-28T12:24:02;3.67;;;1.93;;
78312;SDS011;67568;47.438;21.408;2023-12-28T12:26:28;3.55;;;1.70;;
78312;SDS011;67568;47.438;21.408;2023-12-28T12:28:55;5.05;;;2.42;;
78312;SDS011;67568;47.438;21.408;2023-12-28T12:31:22;4.95;;;2.38;;
78312;SDS011;67568;47.438;21.408;2023-12-28T12:33:50;5.05;;;2.05;;
78312;SDS011;67568;47.438;21.408;2023-12-28T12:36:17;6.30;;;2.17;;
78312;SDS011;67568;47.438;21.408;2023-12-28T12:38:44;5.50;;;2.03;;
78312;SDS011;67568;47.438;21.408;2023-12-28T12:41:12;6.75;;;2.40;;
78312;SDS011;67568;47.438;21.408;2023-12-28T12:43:40;6.70;;;2.25;;
78312;SDS011;67568;47.438;21.408;2023-12-28T12:46:07;5.20;;;1.95;;
78312;SDS011;67568;47.438;21.408;2023-12-28T12:48:34;5.90;;;2.47;;
78312;SDS011;67568;47.438;21.408;2023-12-28T12:51:04;4.40;;;2.05;;
78312;SDS011;67568;47.438;21.408;2023-12-28T12:53:34;8.35;;;2.08;;
78312;SDS011;67568;47.438;21.408;2023-12-28T12:56:02;4.38;;;1.73;;
78312;SDS011;67568;47.438;21.408;2023-12-28T12:58:30;3.45;;;1.50;;
78312;SDS011;67568;47.438;21.408;2023-12-28T13:01:00;2.87;;;1.10;;
78312;SDS011;67568;47.438;21.408;2023-12-28T13:03:28;4.13;;;1.55;;
78312;SDS011;67568;47.438;21.408;2023-12-28T13:05:54;2.75;;;1.23;;
78312;SDS011;67568;47.438;21.408;2023-12-28T13:08:22;3.72;;;1.50;;
78312;SDS011;67568;47.438;21.408;2023-12-28T13:10:49;4.70;;;2.03;;
78312;SDS011;67568;47.438;21.408;2023-12-28T13:13:15;3.47;;;1.33;;
78312;SDS011;67568;47.438;21.408;2023-12-28T13:15:42;5.35;;;1.70;;
78312;SDS011;67568;47.438;21.408;2023-12-28T13:18:09;3.92;;;1.45;;
78312;SDS011;67568;47.438;21.408;2023-12-28T13:20:36;4.40;;;1.70;;
78312;SDS011;67568;47.438;21.408;2023-12-28T13:23:03;4.15;;;1.70;;
78312;SDS011;67568;47.438;21.408;2023-12-28T13:25:33;7.23;;;1.50;;
78312;SDS011;67568;47.438;21.408;2023-12-28T13:28:00;3.25;;;1.40;;
78312;SDS011;67568;47.438;21.408;2023-12-28T13:30:27;3.17;;;1.77;;
78312;SDS011;67568;47.438;21.408;2023-12-28T13:32:54;4.15;;;1.63;;
78312;SDS011;67568;47.438;21.408;2023-12-28T13:35:21;3.90;;;1.85;;
78312;SDS011;67568;47.438;21.408;2023-12-28T13:37:48;8.03;;;1.43;;
78312;SDS011;67568;47.438;21.408;2023-12-28T13:40:15;8.32;;;2.17;;
78312;SDS011;67568;47.438;21.408;2023-12-28T13:42:45;9.48;;;2.08;;
78312;SDS011;67568;47.438;21.408;2023-12-28T13:45:13;4.47;;;2.00;;
78312;SDS011;67568;47.438;21.408;2023-12-28T13:47:40;4.68;;;1.88;;
78312;SDS011;67568;47.438;21.408;2023-12-28T13:50:07;3.40;;;1.47;;
78312;SDS011;67568;47.438;21.408;2023-12-28T13:52:34;3.72;;;1.40;;
78312;SDS011;67568;47.438;21.408;2023-12-28T13:55:00;3.53;;;1.35;;
78312;SDS011;67568;47.438;21.408;2023-12-28T13:57:28;3.88;;;1.67;;
78312;SDS011;67568;47.438;21.408;2023-12-28T13:59:55;3.72;;;1.63;;
78312;SDS011;67568;47.438;21.408;2023-12-28T14:02:23;4.53;;;1.83;;
78312;SDS011;67568;47.438;21.408;2023-12-28T14:04:49;3.83;;;2.28;;
78312;SDS011;67568;47.438;21.408;2023-12-28T14:07:16;3.97;;;1.58;;
78312;SDS011;67568;47.438;21.408;2023-12-28T14:09:43;2.83;;;1.30;;
78312;SDS011;67568;47.438;21.408;2023-12-28T14:12:10;5.20;;;2.03;;
78312;SDS011;67568;47.438;21.408;2023-12-28T14:14:36;3.50;;;1.57;;
78312;SDS011;67568;47.438;21.408;2023-12-28T14:17:03;5.25;;;2.13;;
78312;SDS011;67568;47.438;21.408;2023-12-28T14:19:30;5.65;;;1.77;;
78312;SDS011;67568;47.438;21.408;2023-12-28T14:21:58;3.42;;;1.45;;
78312;SDS011;67568;47.438;21.408;2023-12-28T14:24:26;4.28;;;2.13;;
78312;SDS011;67568;47.438;21.408;2023-12-28T14:26:53;3.33;;;1.50;;
78312;SDS011;67568;47.438;21.408;2023-12-28T14:29:21;9.50;;;2.55;;
78312;SDS011;67568;47.438;21.408;2023-12-28T14:31:49;3.13;;;1.67;;
78312;SDS011;67568;47.438;21.408;2023-12-28T14:34:16;3.20;;;1.55;;
78312;SDS011;67568;47.438;21.408;2023-12-28T14:36:44;4.32;;;2.55;;
78312;SDS011;67568;47.438;21.408;2023-12-28T14:39:11;4.50;;;1.93;;
78312;SDS011;67568;47.438;21.408;2023-12-28T14:41:38;3.75;;;1.92;;
78312;SDS011;67568;47.438;21.408;2023-12-28T14:44:09;3.65;;;1.73;;